sensor_id;sensor_type;location;lat;lon;timestamp;noise_LAeq;noise_LA_min;noise_LA_max;noise_LA01;noise_LA95
66399;Laerm;54877;51.504;3.894;2024-02-16T00:01:14;35.72;33.99;42.90;;
66399;Laerm;54877;51.504;3.894;2024-02-16T00:03:39;35.82;34.23;39.77;;
66399;Laerm;54877;51.504;3.894;2024-02-16T00:06:05;35.62;34.09;37.16;;
66399;Laerm;54877;51.504;3.894;2024-02-16T00:08:30;35.63;33.99;37.34;;
66399;Laerm;54877;51.504;3.894;2024-02-16T00:10:56;43.51;34.39;62.41;;
66399;Laerm;54877;51.504;3.894;2024-02-16T00:13:21;35.73;34.27;41.42;;
66399;Laerm;54877;51.504;3.894;2024-02-16T00:15:47;35.77;34.35;39.14;;
66399;Laerm;54877;51.504;3.894;2024-02-16T00:18:13;35.71;34.16;37.11;;
66399;Laerm;54877;51.504;3.894;2024-02-16T00:20:38;35.67;34.28;37.21;;
66399;Laerm;54877;51.504;3.894;2024-02-16T00:23:03;35.69;34.26;37.24;;
66399;Laerm;54877;51.504;3.894;2024-02-16T00:25:29;35.80;34.05;37.21;;
66399;Laerm;54877;51.504;3.894;2024-02-16T00:27:54;35.73;34.37;37.58;;
66399;Laerm;54877;51.504;3.894;2024-02-16T00:30:20;35.82;34.39;38.90;;
66399;Laerm;54877;51.504;3.894;2024-02-16T00:32:46;35.81;34.31;37.28;;
66399;Laerm;54877;51.504;3.894;2024-02-16T00:35:12;35.83;34.44;37.25;;
66399;Laerm;54877;51.504;3.894;2024-02-16T00:37:38;35.72;33.69;36.96;;
66399;Laerm;54877;51.504;3.894;2024-02-16T00:40:04;35.77;34.11;38.14;;
66399;Laerm;54877;51.504;3.894;2024-02-16T00:42:31;35.75;34.06;37.71;;
66399;Laerm;54877;51.504;3.894;2024-02-16T00:44:57;35.95;34.12;40.27;;
66399;Laerm;54877;51.504;3.894;2024-02-16T00:47:22;35.68;34.04;37.08;;
66399;Laerm;54877;51.504;3.894;2024-02-16T00:49:49;35.62;33.96;37.07;;
66399;Laerm;54877;51.504;3.894;2024-02-16T00:52:14;35.54;34.08;36.70;;
66399;Laerm;54877;51.504;3.894;2024-02-16T00:54:39;35.81;34.00;44.76;;
66399;Laerm;54877;51.504;3.894;2024-02-16T00:57:05;35.56;33.98;37.00;;
66399;Laerm;54877;51.504;3.894;2024-02-16T00:59:30;35.49;33.96;36.88;;
66399;Laerm;54877;51.504;3.894;2024-02-16T01:01:55;35.62;34.07;37.53;;
66399;Laerm;54877;51.504;3.894;2024-02-16T01:04:21;35.52;34.11;36.61;;
66399;Laerm;54877;51.504;3.894;2024-02-16T01:06:46;35.64;34.22;37.04;;
66399;Laerm;54877;51.504;3.894;2024-02-16T01:09:12;47.89;34.17;67.09;;
66399;Laerm;54877;51.504;3.894;2024-02-16T01:11:40;35.51;34.06;36.80;;
66399;Laerm;54877;51.504;3.894;2024-02-16T01:14:05;35.50;34.06;36.92;;
66399;Laerm;54877;51.504;3.894;2024-02-16T01:16:30;35.70;34.18;37.58;;
66399;Laerm;54877;51.504;3.894;2024-02-16T01:18:56;35.69;34.10;38.21;;
66399;Laerm;54877;51.504;3.894;2024-02-16T01:21:22;35.55;34.17;37.36;;
66399;Laerm;54877;51.504;3.894;2024-02-16T01:23:47;35.52;34.12;38.78;;
66399;Laerm;54877;51.504;3.894;2024-02-16T01:26:13;35.57;34.06;36.96;;
66399;Laerm;54877;51.504;3.894;2024-02-16T01:28:41;35.50;34.01;36.93;;
66399;Laerm;54877;51.504;3.894;2024-02-16T01:31:07;35.56;34.08;37.09;;
66399;Laerm;54877;51.504;3.894;2024-02-16T01:33:35;35.53;34.11;37.09;;
66399;Laerm;54877;51.504;3.894;2024-02-16T01:36:02;35.59;33.86;38.24;;
66399;Laerm;54877;51.504;3.894;2024-02-16T01:38:27;35.61;34.12;37.38;;
66399;Laerm;54877;51.504;3.894;2024-02-16T01:40:52;35.66;34.32;37.00;;
66399;Laerm;54877;51.504;3.894;2024-02-16T01:43:21;35.55;34.02;36.87;;
66399;Laerm;54877;51.504;3.894;2024-02-16T01:45:47;35.54;34.03;36.90;;
66399;Laerm;54877;51.504;3.894;2024-02-16T01:48:14;35.54;33.98;37.02;;
66399;Laerm;54877;51.504;3.894;2024-02-16T01:50:43;35.60;34.12;37.39;;
66399;Laerm;54877;51.504;3.894;2024-02-16T01:53:09;35.59;34.13;36.95;;
66399;Laerm;54877;51.504;3.894;2024-02-16T01:55:35;35.62;33.94;37.16;;
66399;Laerm;54877;51.504;3.894;2024-02-16T01:58:00;35.53;34.09;36.76;;
66399;Laerm;54877;51.504;3.894;2024-02-16T02:00:26;35.53;33.99;37.76;;
66399;Laerm;54877;51.504;3.894;2024-02-16T02:02:51;35.50;34.07;36.80;;
66399;Laerm;54877;51.504;3.894;2024-02-16T02:05:17;35.56;34.25;36.76;;
66399;Laerm;54877;51.504;3.894;2024-02-16T02:07:43;35.57;33.90;36.84;;
66399;Laerm;54877;51.504;3.894;2024-02-16T02:10:09;35.53;34.09;39.46;;
66399;Laerm;54877;51.504;3.894;2024-02-16T02:12:37;35.51;34.10;36.88;;
66399;Laerm;54877;51.504;3.894;2024-02-16T02:15:03;35.62;34.26;39.01;;
66399;Laerm;54877;51.504;3.894;2024-02-16T02:17:28;35.63;34.19;37.03;;
66399;Laerm;54877;51.504;3.894;2024-02-16T02:19:53;35.55;34.05;37.11;;
66399;Laerm;54877;51.504;3.894;2024-02-16T02:22:19;41.14;34.12;65.34;;
66399;Laerm;54877;51.504;3.894;2024-02-16T02:24:45;35.54;34.23;36.84;;
66399;Laerm;54877;51.504;3.894;2024-02-16T02:27:12;35.56;34.19;36.86;;
66399;Laerm;54877;51.504;3.894;2024-02-16T02:29:38;35.53;34.09;36.78;;
66399;Laerm;54877;51.504;3.894;2024-02-16T02:32:04;35.57;34.08;37.12;;
66399;Laerm;54877;51.504;3.894;2024-02-16T02:34:29;35.62;34.29;37.11;;
66399;Laerm;54877;51.504;3.894;2024-02-16T02:36:55;35.63;34.16;36.93;;
66399;Laerm;54877;51.504;3.894;2024-02-16T02:39:20;35.70;34.13;38.65;;
66399;Laerm;54877;51.504;3.894;2024-02-16T02:41:46;35.64;34.24;39.93;;
66399;Laerm;54877;51.504;3.894;2024-02-16T02:44:11;35.64;34.36;36.92;;
66399;Laerm;54877;51.504;3.894;2024-02-16T02:46:36;35.61;34.28;36.99;;
66399;Laerm;54877;51.504;3.894;2024-02-16T02:49:02;35.66;34.12;36.93;;
66399;Laerm;54877;51.504;3.894;2024-02-16T02:51:28;35.72;34.14;37.08;;
66399;Laerm;54877;51.504;3.894;2024-02-16T02:53:54;35.72;34.39;37.31;;
66399;Laerm;54877;51.504;3.894;2024-02-16T02:56:19;35.60;34.19;37.96;;
66399;Laerm;54877;51.504;3.894;2024-02-16T02:58:44;35.63;34.30;37.07;;
66399;Laerm;54877;51.504;3.894;2024-02-16T03:01:10;35.70;34.27;37.87;;
66399;Laerm;54877;51.504;3.894;2024-02-16T03:03:36;35.70;34.34;36.93;;
66399;Laerm;54877;51.504;3.894;2024-02-16T03:06:02;35.77;34.29;37.15;;
66399;Laerm;54877;51.504;3.894;2024-02-16T03:08:28;35.88;34.34;39.85;;
66399;Laerm;54877;51.504;3.894;2024-02-16T03:10:53;35.76;34.04;38.74;;
66399;Laerm;54877;51.504;3.894;2024-02-16T03:13:19;35.77;34.33;37.38;;
66399;Laerm;54877;51.504;3.894;2024-02-16T03:15:45;35.98;34.41;37.66;;
66399;Laerm;54877;51.504;3.894;2024-02-16T03:18:10;35.76;34.18;37.01;;
66399;Laerm;54877;51.504;3.894;2024-02-16T03:20:36;35.89;34.46;38.23;;
66399;Laerm;54877;51.504;3.894;2024-02-16T03:23:01;35.85;34.43;37.23;;
66399;Laerm;54877;51.504;3.894;2024-02-16T03:25:28;35.88;34.52;38.46;;
66399;Laerm;54877;51.504;3.894;2024-02-16T03:27:53;35.96;34.59;38.10;;
66399;Laerm;54877;51.504;3.894;2024-02-16T03:30:19;36.94;34.43;54.57;;
66399;Laerm;54877;51.504;3.894;2024-02-16T03:32:50;36.72;34.39;50.87;;
66399;Laerm;54877;51.504;3.894;2024-02-16T03:35:17;36.14;34.11;41.16;;
66399;Laerm;54877;51.504;3.894;2024-02-16T03:37:42;36.05;34.63;37.52;;
66399;Laerm;54877;51.504;3.894;2024-02-16T03:40:08;35.92;34.15;37.76;;
66399;Laerm;54877;51.504;3.894;2024-02-16T03:42:35;35.90;34.34;37.18;;
66399;Laerm;54877;51.504;3.894;2024-02-16T03:45:01;36.01;34.57;37.34;;
66399;Laerm;54877;51.504;3.894;2024-02-16T03:47:26;36.07;34.69;38.32;;
66399;Laerm;54877;51.504;3.894;2024-02-16T03:49:51;36.13;34.57;38.09;;
66399;Laerm;54877;51.504;3.894;2024-02-16T03:52:16;36.08;34.56;37.42;;
66399;Laerm;54877;51.504;3.894;2024-02-16T03:54:42;36.03;34.55;37.89;;
66399;Laerm;54877;51.504;3.894;2024-02-16T03:57:09;36.07;34.76;38.53;;
66399;Laerm;54877;51.504;3.894;2024-02-16T03:59:36;36.10;34.82;37.56;;
66399;Laerm;54877;51.504;3.894;2024-02-16T04:02:02;36.19;34.83;38.92;;
66399;Laerm;54877;51.504;3.894;2024-02-16T04:04:27;36.70;34.62;58.08;;
66399;Laerm;54877;51.504;3.894;2024-02-16T04:06:53;36.30;34.74;37.87;;
66399;Laerm;54877;51.504;3.894;2024-02-16T04:09:18;36.18;34.64;37.69;;
66399;Laerm;54877;51.504;3.894;2024-02-16T04:11:45;36.23;34.42;38.69;;
66399;Laerm;54877;51.504;3.894;2024-02-16T04:14:10;36.26;34.79;37.65;;
66399;Laerm;54877;51.504;3.894;2024-02-16T04:16:36;36.12;34.81;37.63;;
66399;Laerm;54877;51.504;3.894;2024-02-16T04:19:02;36.08;34.75;37.45;;
66399;Laerm;54877;51.504;3.894;2024-02-16T04:21:27;36.15;34.53;38.36;;
66399;Laerm;54877;51.504;3.894;2024-02-16T04:23:52;36.20;34.41;37.49;;
66399;Laerm;54877;51.504;3.894;2024-02-16T04:26:18;36.30;34.81;39.50;;
66399;Laerm;54877;51.504;3.894;2024-02-16T04:28:43;36.44;35.01;41.98;;
66399;Laerm;54877;51.504;3.894;2024-02-16T04:31:08;36.29;34.86;39.97;;
66399;Laerm;54877;51.504;3.894;2024-02-16T04:33:34;44.59;34.76;64.81;;
66399;Laerm;54877;51.504;3.894;2024-02-16T04:35:59;36.16;34.62;37.80;;
66399;Laerm;54877;51.504;3.894;2024-02-16T04:38:24;36.19;34.65;37.72;;
66399;Laerm;54877;51.504;3.894;2024-02-16T04:40:50;36.22;34.64;38.09;;
66399;Laerm;54877;51.504;3.894;2024-02-16T04:43:15;36.22;34.70;37.89;;
66399;Laerm;54877;51.504;3.894;2024-02-16T04:45:41;36.35;34.92;38.07;;
66399;Laerm;54877;51.504;3.894;2024-02-16T04:48:07;36.37;34.53;42.62;;
66399;Laerm;54877;51.504;3.894;2024-02-16T04:50:33;36.29;34.84;37.60;;
66399;Laerm;54877;51.504;3.894;2024-02-16T04:52:59;36.55;35.02;38.79;;
66399;Laerm;54877;51.504;3.894;2024-02-16T04:55:27;36.82;34.88;60.55;;
66399;Laerm;54877;51.504;3.894;2024-02-16T04:57:53;37.30;34.65;55.79;;
66399;Laerm;54877;51.504;3.894;2024-02-16T05:00:19;36.72;34.69;47.90;;
66399;Laerm;54877;51.504;3.894;2024-02-16T05:02:46;43.89;34.64;65.36;;
66399;Laerm;54877;51.504;3.894;2024-02-16T05:05:11;36.41;34.85;38.17;;
66399;Laerm;54877;51.504;3.894;2024-02-16T05:07:36;36.49;35.04;44.34;;
66399;Laerm;54877;51.504;3.894;2024-02-16T05:10:02;36.47;34.73;39.11;;
66399;Laerm;54877;51.504;3.894;2024-02-16T05:12:27;36.46;34.96;38.80;;
66399;Laerm;54877;51.504;3.894;2024-02-16T05:14:53;36.38;34.88;39.16;;
66399;Laerm;54877;51.504;3.894;2024-02-16T05:17:19;37.07;35.12;57.25;;
66399;Laerm;54877;51.504;3.894;2024-02-16T05:19:45;36.72;35.16;38.40;;
66399;Laerm;54877;51.504;3.894;2024-02-16T05:22:10;36.66;35.21;39.38;;
66399;Laerm;54877;51.504;3.894;2024-02-16T05:24:36;36.61;35.01;39.27;;
66399;Laerm;54877;51.504;3.894;2024-02-16T05:27:02;37.01;35.13;49.17;;
66399;Laerm;54877;51.504;3.894;2024-02-16T05:29:27;46.74;35.22;65.20;;
66399;Laerm;54877;51.504;3.894;2024-02-16T05:31:53;46.59;35.11;65.39;;
66399;Laerm;54877;51.504;3.894;2024-02-16T05:34:19;48.56;35.42;68.52;;
66399;Laerm;54877;51.504;3.894;2024-02-16T05:36:44;48.26;35.01;66.67;;
66399;Laerm;54877;51.504;3.894;2024-02-16T05:39:10;37.15;35.38;46.89;;
66399;Laerm;54877;51.504;3.894;2024-02-16T05:41:45;37.04;35.43;38.63;;
66399;Laerm;54877;51.504;3.894;2024-02-16T05:44:11;37.44;35.36;44.02;;
66399;Laerm;54877;51.504;3.894;2024-02-16T05:46:36;37.16;35.27;39.62;;
66399;Laerm;54877;51.504;3.894;2024-02-16T05:49:03;37.03;35.48;40.45;;
66399;Laerm;54877;51.504;3.894;2024-02-16T05:51:35;37.51;35.72;42.07;;
66399;Laerm;54877;51.504;3.894;2024-02-16T05:54:01;37.19;35.11;39.26;;
66399;Laerm;54877;51.504;3.894;2024-02-16T05:56:26;48.40;35.46;67.77;;
66399;Laerm;54877;51.504;3.894;2024-02-16T05:58:53;42.73;35.38;60.77;;
66399;Laerm;54877;51.504;3.894;2024-02-16T06:01:18;37.35;35.48;42.34;;
66399;Laerm;54877;51.504;3.894;2024-02-16T06:03:44;37.03;35.52;39.59;;
66399;Laerm;54877;51.504;3.894;2024-02-16T06:06:09;37.96;35.61;60.18;;
66399;Laerm;54877;51.504;3.894;2024-02-16T06:08:35;47.23;35.83;65.12;;
66399;Laerm;54877;51.504;3.894;2024-02-16T06:11:00;37.96;35.71;45.59;;
66399;Laerm;54877;51.504;3.894;2024-02-16T06:13:27;39.54;35.86;51.71;;
66399;Laerm;54877;51.504;3.894;2024-02-16T06:15:53;39.73;35.85;64.69;;
66399;Laerm;54877;51.504;3.894;2024-02-16T06:18:18;49.62;35.95;66.85;;
66399;Laerm;54877;51.504;3.894;2024-02-16T06:20:44;39.09;35.95;50.63;;
66399;Laerm;54877;51.504;3.894;2024-02-16T06:23:10;38.38;36.07;50.52;;
66399;Laerm;54877;51.504;3.894;2024-02-16T06:25:35;45.02;35.65;64.31;;
66399;Laerm;54877;51.504;3.894;2024-02-16T06:28:01;37.95;35.85;44.50;;
66399;Laerm;54877;51.504;3.894;2024-02-16T06:30:26;49.96;36.16;67.69;;
66399;Laerm;54877;51.504;3.894;2024-02-16T06:32:51;41.92;36.85;57.37;;
66399;Laerm;54877;51.504;3.894;2024-02-16T06:35:20;38.81;36.05;49.61;;
66399;Laerm;54877;51.504;3.894;2024-02-16T06:37:45;46.92;36.15;65.88;;
66399;Laerm;54877;51.504;3.894;2024-02-16T06:40:11;52.46;35.80;73.55;;
66399;Laerm;54877;51.504;3.894;2024-02-16T06:42:37;46.41;36.06;65.53;;
66399;Laerm;54877;51.504;3.894;2024-02-16T06:45:03;40.94;36.25;56.91;;
66399;Laerm;54877;51.504;3.894;2024-02-16T06:47:30;39.00;36.39;52.70;;
66399;Laerm;54877;51.504;3.894;2024-02-16T06:49:56;38.04;35.83;49.07;;
66399;Laerm;54877;51.504;3.894;2024-02-16T06:52:21;39.11;36.13;61.49;;
66399;Laerm;54877;51.504;3.894;2024-02-16T06:54:46;39.48;36.08;61.77;;
66399;Laerm;54877;51.504;3.894;2024-02-16T06:57:12;38.60;35.49;66.02;;
66399;Laerm;54877;51.504;3.894;2024-02-16T06:59:37;42.34;35.68;58.42;;
66399;Laerm;54877;51.504;3.894;2024-02-16T07:02:03;40.55;36.17;50.30;;
66399;Laerm;54877;51.504;3.894;2024-02-16T07:04:28;44.86;36.31;61.14;;
66399;Laerm;54877;51.504;3.894;2024-02-16T07:06:53;41.06;36.12;55.39;;
66399;Laerm;54877;51.504;3.894;2024-02-16T07:09:19;37.93;35.76;40.11;;
66399;Laerm;54877;51.504;3.894;2024-02-16T07:11:45;41.08;35.94;64.16;;
66399;Laerm;54877;51.504;3.894;2024-02-16T07:14:12;43.73;36.02;61.64;;
66399;Laerm;54877;51.504;3.894;2024-02-16T07:16:38;37.80;35.80;50.36;;
66399;Laerm;54877;51.504;3.894;2024-02-16T07:19:03;46.19;36.04;65.45;;
66399;Laerm;54877;51.504;3.894;2024-02-16T07:21:28;45.81;36.11;65.91;;
66399;Laerm;54877;51.504;3.894;2024-02-16T07:23:54;39.59;35.92;60.28;;
66399;Laerm;54877;51.504;3.894;2024-02-16T07:26:19;39.37;35.97;52.05;;
66399;Laerm;54877;51.504;3.894;2024-02-16T07:28:45;44.03;35.53;58.55;;
66399;Laerm;54877;51.504;3.894;2024-02-16T07:31:10;39.07;35.94;57.76;;
66399;Laerm;54877;51.504;3.894;2024-02-16T07:33:36;38.59;36.01;45.81;;
66399;Laerm;54877;51.504;3.894;2024-02-16T07:36:02;49.68;36.26;71.18;;
66399;Laerm;54877;51.504;3.894;2024-02-16T07:38:27;38.07;36.07;55.47;;
66399;Laerm;54877;51.504;3.894;2024-02-16T07:40:53;42.13;36.34;67.98;;
66399;Laerm;54877;51.504;3.894;2024-02-16T07:43:19;39.00;35.57;56.94;;
66399;Laerm;54877;51.504;3.894;2024-02-16T07:45:44;39.37;36.10;64.93;;
66399;Laerm;54877;51.504;3.894;2024-02-16T07:48:10;40.17;35.90;61.67;;
66399;Laerm;54877;51.504;3.894;2024-02-16T07:50:35;39.48;35.79;50.65;;
66399;Laerm;54877;51.504;3.894;2024-02-16T07:53:01;38.41;36.09;50.62;;
66399;Laerm;54877;51.504;3.894;2024-02-16T07:55:26;44.48;35.34;62.14;;
66399;Laerm;54877;51.504;3.894;2024-02-16T07:57:51;47.84;36.15;66.43;;
66399;Laerm;54877;51.504;3.894;2024-02-16T08:00:17;39.05;35.99;51.02;;
66399;Laerm;54877;51.504;3.894;2024-02-16T08:02:42;46.58;35.83;64.76;;
66399;Laerm;54877;51.504;3.894;2024-02-16T08:05:11;39.72;36.08;68.15;;
66399;Laerm;54877;51.504;3.894;2024-02-16T08:07:41;47.30;36.01;65.34;;
66399;Laerm;54877;51.504;3.894;2024-02-16T08:10:08;37.81;35.89;52.95;;
66399;Laerm;54877;51.504;3.894;2024-02-16T08:12:33;37.67;36.22;46.90;;
66399;Laerm;54877;51.504;3.894;2024-02-16T08:15:01;41.21;35.91;60.38;;
66399;Laerm;54877;51.504;3.894;2024-02-16T08:17:26;40.41;36.14;58.29;;
66399;Laerm;54877;51.504;3.894;2024-02-16T08:19:53;37.89;35.99;46.39;;
66399;Laerm;54877;51.504;3.894;2024-02-16T08:22:19;37.88;35.91;46.92;;
66399;Laerm;54877;51.504;3.894;2024-02-16T08:24:44;45.38;36.74;63.93;;
66399;Laerm;54877;51.504;3.894;2024-02-16T08:27:11;40.00;36.08;62.04;;
66399;Laerm;54877;51.504;3.894;2024-02-16T08:29:38;47.12;35.95;66.16;;
66399;Laerm;54877;51.504;3.894;2024-02-16T08:32:03;41.44;36.07;59.65;;
66399;Laerm;54877;51.504;3.894;2024-02-16T08:34:30;48.14;36.20;64.82;;
66399;Laerm;54877;51.504;3.894;2024-02-16T08:36:57;44.84;36.22;62.28;;
66399;Laerm;54877;51.504;3.894;2024-02-16T08:39:23;43.59;36.03;60.92;;
66399;Laerm;54877;51.504;3.894;2024-02-16T08:41:51;45.70;36.07;61.71;;
66399;Laerm;54877;51.504;3.894;2024-02-16T08:44:16;37.69;35.85;42.16;;
66399;Laerm;54877;51.504;3.894;2024-02-16T08:46:43;38.41;35.74;56.41;;
66399;Laerm;54877;51.504;3.894;2024-02-16T08:49:09;45.19;36.40;61.42;;
66399;Laerm;54877;51.504;3.894;2024-02-16T08:51:35;40.05;37.10;51.03;;
66399;Laerm;54877;51.504;3.894;2024-02-16T08:54:01;47.25;36.46;66.86;;
66399;Laerm;54877;51.504;3.894;2024-02-16T08:56:29;39.66;36.36;64.60;;
66399;Laerm;54877;51.504;3.894;2024-02-16T08:58:54;37.94;35.97;57.49;;
66399;Laerm;54877;51.504;3.894;2024-02-16T09:01:30;45.33;36.33;71.23;;
66399;Laerm;54877;51.504;3.894;2024-02-16T09:03:55;38.98;36.06;67.00;;
66399;Laerm;54877;51.504;3.894;2024-02-16T09:06:21;43.39;35.65;60.59;;
66399;Laerm;54877;51.504;3.894;2024-02-16T09:08:46;38.50;35.93;49.54;;
66399;Laerm;54877;51.504;3.894;2024-02-16T09:11:11;43.05;36.06;60.69;;
66399;Laerm;54877;51.504;3.894;2024-02-16T09:13:39;48.05;36.37;75.81;;
66399;Laerm;54877;51.504;3.894;2024-02-16T09:16:05;46.76;35.87;65.25;;
66399;Laerm;54877;51.504;3.894;2024-02-16T09:18:31;38.30;36.09;47.31;;
66399;Laerm;54877;51.504;3.894;2024-02-16T09:20:57;45.54;36.26;62.81;;
66399;Laerm;54877;51.504;3.894;2024-02-16T09:23:22;38.09;36.10;52.25;;
66399;Laerm;54877;51.504;3.894;2024-02-16T09:25:48;39.08;36.42;45.80;;
66399;Laerm;54877;51.504;3.894;2024-02-16T09:28:14;40.14;37.23;47.68;;
66399;Laerm;54877;51.504;3.894;2024-02-16T09:30:39;44.14;38.08;59.15;;
66399;Laerm;54877;51.504;3.894;2024-02-16T09:33:05;40.29;37.39;48.65;;
66399;Laerm;54877;51.504;3.894;2024-02-16T09:35:32;38.36;36.42;46.55;;
66399;Laerm;54877;51.504;3.894;2024-02-16T09:37:57;45.80;36.58;62.58;;
66399;Laerm;54877;51.504;3.894;2024-02-16T09:40:23;38.36;36.54;43.82;;
66399;Laerm;54877;51.504;3.894;2024-02-16T09:42:49;39.51;36.28;49.52;;
66399;Laerm;54877;51.504;3.894;2024-02-16T09:45:15;47.80;35.57;64.23;;
66399;Laerm;54877;51.504;3.894;2024-02-16T09:47:42;37.93;35.42;46.76;;
66399;Laerm;54877;51.504;3.894;2024-02-16T09:50:09;43.01;36.21;59.62;;
66399;Laerm;54877;51.504;3.894;2024-02-16T09:52:36;47.13;36.18;65.65;;
66399;Laerm;54877;51.504;3.894;2024-02-16T09:55:01;38.02;36.32;44.26;;
66399;Laerm;54877;51.504;3.894;2024-02-16T09:57:27;39.19;36.35;54.34;;
66399;Laerm;54877;51.504;3.894;2024-02-16T09:59:52;40.78;36.26;59.86;;
66399;Laerm;54877;51.504;3.894;2024-02-16T10:02:17;46.56;36.21;63.52;;
66399;Laerm;54877;51.504;3.894;2024-02-16T10:04:43;42.57;36.18;59.35;;
66399;Laerm;54877;51.504;3.894;2024-02-16T10:07:08;43.88;36.22;63.33;;
66399;Laerm;54877;51.504;3.894;2024-02-16T10:09:33;44.68;35.90;62.05;;
66399;Laerm;54877;51.504;3.894;2024-02-16T10:11:59;47.69;36.06;68.30;;
66399;Laerm;54877;51.504;3.894;2024-02-16T10:14:25;45.77;35.89;63.93;;
66399;Laerm;54877;51.504;3.894;2024-02-16T10:19:28;45.19;35.94;64.21;;
66399;Laerm;54877;51.504;3.894;2024-02-16T10:21:53;44.62;35.95;60.42;;
66399;Laerm;54877;51.504;3.894;2024-02-16T10:24:21;37.67;36.07;44.21;;
66399;Laerm;54877;51.504;3.894;2024-02-16T10:26:47;41.72;35.42;74.50;;
66399;Laerm;54877;51.504;3.894;2024-02-16T10:29:17;48.36;35.79;68.90;;
66399;Laerm;54877;51.504;3.894;2024-02-16T10:31:45;42.98;36.26;60.11;;
66399;Laerm;54877;51.504;3.894;2024-02-16T10:34:10;46.69;35.83;61.98;;
66399;Laerm;54877;51.504;3.894;2024-02-16T10:36:36;37.47;35.86;48.02;;
66399;Laerm;54877;51.504;3.894;2024-02-16T10:39:03;38.94;35.97;53.72;;
66399;Laerm;54877;51.504;3.894;2024-02-16T10:41:37;38.96;35.83;70.05;;
66399;Laerm;54877;51.504;3.894;2024-02-16T10:44:03;42.52;36.03;60.90;;
66399;Laerm;54877;51.504;3.894;2024-02-16T10:46:29;44.81;36.27;64.52;;
66399;Laerm;54877;51.504;3.894;2024-02-16T10:48:55;49.16;36.23;70.15;;
66399;Laerm;54877;51.504;3.894;2024-02-16T10:51:44;37.77;36.22;45.99;;
66399;Laerm;54877;51.504;3.894;2024-02-16T10:54:12;37.93;36.00;52.06;;
66399;Laerm;54877;51.504;3.894;2024-02-16T10:56:40;46.82;36.04;63.10;;
66399;Laerm;54877;51.504;3.894;2024-02-16T10:59:09;41.40;36.44;58.01;;
66399;Laerm;54877;51.504;3.894;2024-02-16T11:01:39;38.15;36.42;48.86;;
66399;Laerm;54877;51.504;3.894;2024-02-16T11:04:11;37.91;36.05;47.12;;
66399;Laerm;54877;51.504;3.894;2024-02-16T11:06:52;38.04;35.69;45.84;;
66399;Laerm;54877;51.504;3.894;2024-02-16T11:09:43;40.90;36.29;64.07;;
66399;Laerm;54877;51.504;3.894;2024-02-16T11:12:12;48.62;36.30;61.75;;
66399;Laerm;54877;51.504;3.894;2024-02-16T11:14:39;46.52;36.23;65.73;;
66399;Laerm;54877;51.504;3.894;2024-02-16T11:17:15;37.95;36.21;50.82;;
66399;Laerm;54877;51.504;3.894;2024-02-16T11:19:44;44.58;36.20;63.30;;
66399;Laerm;54877;51.504;3.894;2024-02-16T11:22:10;37.94;35.99;49.16;;
66399;Laerm;54877;51.504;3.894;2024-02-16T11:24:42;44.16;35.75;61.96;;
66399;Laerm;54877;51.504;3.894;2024-02-16T11:27:08;37.63;35.71;45.31;;
66399;Laerm;54877;51.504;3.894;2024-02-16T11:29:35;38.05;36.15;49.96;;
66399;Laerm;54877;51.504;3.894;2024-02-16T11:32:02;38.79;36.05;56.24;;
66399;Laerm;54877;51.504;3.894;2024-02-16T11:34:28;41.39;35.97;59.53;;
66399;Laerm;54877;51.504;3.894;2024-02-16T11:36:58;38.00;36.09;52.98;;
66399;Laerm;54877;51.504;3.894;2024-02-16T11:39:24;45.66;35.98;63.96;;
66399;Laerm;54877;51.504;3.894;2024-02-16T11:42:11;42.90;36.29;60.59;;
66399;Laerm;54877;51.504;3.894;2024-02-16T11:44:38;37.57;35.99;46.45;;
66399;Laerm;54877;51.504;3.894;2024-02-16T11:47:06;38.53;36.08;62.16;;
66399;Laerm;54877;51.504;3.894;2024-02-16T11:49:38;37.37;35.87;49.72;;
66399;Laerm;54877;51.504;3.894;2024-02-16T11:52:04;46.29;35.82;64.47;;
66399;Laerm;54877;51.504;3.894;2024-02-16T11:54:30;37.77;36.00;48.70;;
66399;Laerm;54877;51.504;3.894;2024-02-16T11:56:56;37.38;35.81;41.55;;
66399;Laerm;54877;51.504;3.894;2024-02-16T11:59:22;41.12;35.88;57.64;;
66399;Laerm;54877;51.504;3.894;2024-02-16T12:01:54;37.36;36.00;40.69;;
66399;Laerm;54877;51.504;3.894;2024-02-16T12:04:30;45.77;36.08;61.03;;
66399;Laerm;54877;51.504;3.894;2024-02-16T12:06:56;37.58;35.91;53.46;;
66399;Laerm;54877;51.504;3.894;2024-02-16T12:09:22;47.81;36.11;63.38;;
66399;Laerm;54877;51.504;3.894;2024-02-16T12:11:49;38.47;36.00;50.83;;
66399;Laerm;54877;51.504;3.894;2024-02-16T12:14:19;39.26;36.02;62.61;;
66399;Laerm;54877;51.504;3.894;2024-02-16T12:16:55;39.62;35.51;57.92;;
66399;Laerm;54877;51.504;3.894;2024-02-16T12:19:21;43.45;35.91;60.97;;
66399;Laerm;54877;51.504;3.894;2024-02-16T12:21:54;43.75;35.91;57.82;;
66399;Laerm;54877;51.504;3.894;2024-02-16T12:24:20;46.99;36.31;60.58;;
66399;Laerm;54877;51.504;3.894;2024-02-16T12:26:46;42.55;35.90;60.60;;
66399;Laerm;54877;51.504;3.894;2024-02-16T12:29:12;37.42;35.74;49.23;;
66399;Laerm;54877;51.504;3.894;2024-02-16T12:31:41;42.00;35.69;58.90;;
66399;Laerm;54877;51.504;3.894;2024-02-16T12:34:07;37.66;35.80;50.22;;
66399;Laerm;54877;51.504;3.894;2024-02-16T12:36:33;48.43;35.21;66.27;;
66399;Laerm;54877;51.504;3.894;2024-02-16T12:39:03;47.22;35.56;67.87;;
66399;Laerm;54877;51.504;3.894;2024-02-16T12:41:32;46.61;35.68;67.76;;
66399;Laerm;54877;51.504;3.894;2024-02-16T12:43:58;39.79;35.81;56.81;;
66399;Laerm;54877;51.504;3.894;2024-02-16T12:46:23;49.35;35.78;67.15;;
66399;Laerm;54877;51.504;3.894;2024-02-16T12:48:50;43.45;35.90;62.32;;
66399;Laerm;54877;51.504;3.894;2024-02-16T12:51:15;46.78;36.32;59.06;;
66399;Laerm;54877;51.504;3.894;2024-02-16T12:53:40;47.03;35.42;64.82;;
66399;Laerm;54877;51.504;3.894;2024-02-16T12:56:09;44.00;35.71;58.82;;
66399;Laerm;54877;51.504;3.894;2024-02-16T12:58:38;40.82;35.50;55.72;;
66399;Laerm;54877;51.504;3.894;2024-02-16T13:01:04;39.02;35.47;50.41;;
66399;Laerm;54877;51.504;3.894;2024-02-16T13:03:36;43.10;35.26;60.88;;
66399;Laerm;54877;51.504;3.894;2024-02-16T13:06:02;44.75;35.68;61.88;;
66399;Laerm;54877;51.504;3.894;2024-02-16T13:08:29;55.97;35.48;72.60;;
66399;Laerm;54877;51.504;3.894;2024-02-16T13:10:58;41.45;35.57;66.25;;
66399;Laerm;54877;51.504;3.894;2024-02-16T13:13:24;39.06;35.31;58.84;;
66399;Laerm;54877;51.504;3.894;2024-02-16T13:15:49;38.83;35.48;51.22;;
66399;Laerm;54877;51.504;3.894;2024-02-16T13:18:15;46.77;35.58;63.17;;
66399;Laerm;54877;51.504;3.894;2024-02-16T13:20:41;43.44;35.47;65.16;;
66399;Laerm;54877;51.504;3.894;2024-02-16T13:23:06;44.99;35.54;61.51;;
66399;Laerm;54877;51.504;3.894;2024-02-16T13:25:31;36.88;35.27;45.94;;
66399;Laerm;54877;51.504;3.894;2024-02-16T13:27:57;46.28;35.34;63.67;;
66399;Laerm;54877;51.504;3.894;2024-02-16T13:30:22;44.16;35.41;66.59;;
66399;Laerm;54877;51.504;3.894;2024-02-16T13:32:48;42.61;35.23;59.14;;
66399;Laerm;54877;51.504;3.894;2024-02-16T13:35:13;49.84;35.81;64.79;;
66399;Laerm;54877;51.504;3.894;2024-02-16T13:37:39;49.20;35.14;67.42;;
66399;Laerm;54877;51.504;3.894;2024-02-16T13:40:07;37.01;35.16;50.12;;
66399;Laerm;54877;51.504;3.894;2024-02-16T13:42:36;41.51;35.36;70.01;;